CYWE

Wekweeti

Wekweeti, Northwest Territories, Canada
METAR CYWE 151900Z AUTO 06011KT 9SM -SN OVC022 M16/M18 A2950 RMK SLP034
Observed Flight Rules
Dec-15 @ 19:00 UTC (40 minutes ago) Marginal Visual Flight Rules
Wind Visibility Clouds Conditions
60° at 11 knots 9 miles
  • Overcast at 2,200' AGL
  • Light Snow
Temperatures Readings
Current -16°C / 3°F
Dewpoint -18°C / -0°F
Humidity 85%
Altimeter 29.5" Hg
Pressure 1003.4 hPa
Elevation 371
METAR CYWE 151900Z AUTO 06011KT 9SM -SN OVC022 M16/M18 A2950 RMK SLP034
Observed Flight Rules
Dec-15 @ 19:00 UTC
(40 minutes ago)
MVFR
Wind Visibility
60° at 11 knots 9 miles
Clouds
  • Overcast at 2,200' AGL
Conditions
  • Light Snow
Temperature Dewpoint
-16°C / 3°F -18°C / -0°F
Humidity Altimeter Pressure
85% 29.5" Hg 1003.4 hPa